sensor_id;sensor_type;location;lat;lon;timestamp;pressure;altitude;pressure_sealevel;temperature;humidity
68871;BME280;55906;52.278;6.808;2023-02-16T00:01:00;102221.09;;;7.79;71.29
68871;BME280;55906;52.278;6.808;2023-02-16T00:03:28;102224.34;;;7.75;71.57
68871;BME280;55906;52.278;6.808;2023-02-16T00:05:54;102218.00;;;7.71;71.38
68871;BME280;55906;52.278;6.808;2023-02-16T00:08:21;102213.41;;;7.67;70.51
68871;BME280;55906;52.278;6.808;2023-02-16T00:10:48;102219.47;;;7.66;71.56
68871;BME280;55906;52.278;6.808;2023-02-16T00:13:28;102205.47;;;7.65;71.59
68871;BME280;55906;52.278;6.808;2023-02-16T00:16:16;102212.31;;;7.63;71.54
68871;BME280;55906;52.278;6.808;2023-02-16T00:18:44;102216.56;;;7.61;71.83
68871;BME280;55906;52.278;6.808;2023-02-16T00:21:12;102216.56;;;7.61;71.11
68871;BME280;55906;52.278;6.808;2023-02-16T00:23:39;102210.16;;;7.56;71.94
68871;BME280;55906;52.278;6.808;2023-02-16T00:26:13;102215.38;;;7.56;72.54
68871;BME280;55906;52.278;6.808;2023-02-16T00:28:41;102202.13;;;7.53;72.18
68871;BME280;55906;52.278;6.808;2023-02-16T00:31:15;102208.25;;;7.54;72.66
68871;BME280;55906;52.278;6.808;2023-02-16T00:33:43;102203.91;;;7.54;72.49
68871;BME280;55906;52.278;6.808;2023-02-16T00:36:10;102194.09;;;7.50;72.86
68871;BME280;55906;52.278;6.808;2023-02-16T00:38:37;102200.94;;;7.48;72.84
68871;BME280;55906;52.278;6.808;2023-02-16T00:41:05;102212.22;;;7.47;72.15
68871;BME280;55906;52.278;6.808;2023-02-16T00:43:51;102200.84;;;7.47;72.36
68871;BME280;55906;52.278;6.808;2023-02-16T00:46:20;102201.75;;;7.47;73.11
68871;BME280;55906;52.278;6.808;2023-02-16T00:48:48;102209.50;;;7.46;73.27
68871;BME280;55906;52.278;6.808;2023-02-16T00:51:14;102208.53;;;7.44;72.64
68871;BME280;55906;52.278;6.808;2023-02-16T00:53:41;102206.63;;;7.41;73.04
68871;BME280;55906;52.278;6.808;2023-02-16T00:56:10;102213.38;;;7.37;73.48
68871;BME280;55906;52.278;6.808;2023-02-16T00:58:38;102209.69;;;7.34;73.81
68871;BME280;55906;52.278;6.808;2023-02-16T01:01:07;102206.97;;;7.32;73.12
68871;BME280;55906;52.278;6.808;2023-02-16T01:03:35;102207.78;;;7.31;73.34
68871;BME280;55906;52.278;6.808;2023-02-16T01:06:04;102204.06;;;7.28;73.57
68871;BME280;55906;52.278;6.808;2023-02-16T01:08:48;102209.13;;;7.25;72.99
68871;BME280;55906;52.278;6.808;2023-02-16T01:11:33;102200.28;;;7.23;73.95
68871;BME280;55906;52.278;6.808;2023-02-16T01:14:00;102207.13;;;7.21;73.17
68871;BME280;55906;52.278;6.808;2023-02-16T01:16:34;102205.84;;;7.14;74.17
68871;BME280;55906;52.278;6.808;2023-02-16T01:19:01;102205.66;;;7.11;74.02
68871;BME280;55906;52.278;6.808;2023-02-16T01:21:29;102206.47;;;7.10;74.56
68871;BME280;55906;52.278;6.808;2023-02-16T01:23:56;102206.38;;;7.09;73.34
68871;BME280;55906;52.278;6.808;2023-02-16T01:26:23;102204.41;;;7.04;73.64
68871;BME280;55906;52.278;6.808;2023-02-16T01:28:50;102195.53;;;7.02;74.32
68871;BME280;55906;52.278;6.808;2023-02-16T01:31:16;102195.53;;;7.02;73.95
68871;BME280;55906;52.278;6.808;2023-02-16T01:33:43;102197.16;;;7.00;73.77
68871;BME280;55906;52.278;6.808;2023-02-16T01:36:19;102194.34;;;6.97;74.06
68871;BME280;55906;52.278;6.808;2023-02-16T01:38:49;102195.97;;;6.95;74.53
68871;BME280;55906;52.278;6.808;2023-02-16T01:41:22;102191.56;;;6.94;74.96
68871;BME280;55906;52.278;6.808;2023-02-16T01:43:56;102196.59;;;6.91;75.52
68871;BME280;55906;52.278;6.808;2023-02-16T01:46:31;102194.06;;;6.93;74.67
68871;BME280;55906;52.278;6.808;2023-02-16T01:49:01;102189.28;;;6.86;75.39
68871;BME280;55906;52.278;6.808;2023-02-16T01:51:32;102198.94;;;6.87;74.91
68871;BME280;55906;52.278;6.808;2023-02-16T01:54:09;102190.91;;;6.84;74.74
68871;BME280;55906;52.278;6.808;2023-02-16T01:56:40;102185.38;;;6.79;75.25
68871;BME280;55906;52.278;6.808;2023-02-16T01:59:15;102191.50;;;6.80;74.93
68871;BME280;55906;52.278;6.808;2023-02-16T02:01:51;102189.72;;;6.79;75.57
68871;BME280;55906;52.278;6.808;2023-02-16T02:04:24;102184.91;;;6.71;75.58
68871;BME280;55906;52.278;6.808;2023-02-16T02:07:16;102182.38;;;6.73;75.41
68871;BME280;55906;52.278;6.808;2023-02-16T02:09:54;102173.44;;;6.69;75.66
68871;BME280;55906;52.278;6.808;2023-02-16T02:12:27;102171.81;;;6.71;74.88
68871;BME280;55906;52.278;6.808;2023-02-16T02:14:55;102169.13;;;6.70;75.04
68871;BME280;55906;52.278;6.808;2023-02-16T02:17:23;102170.91;;;6.71;75.91
68871;BME280;55906;52.278;6.808;2023-02-16T02:20:03;102162.28;;;6.72;75.85
68871;BME280;55906;52.278;6.808;2023-02-16T02:22:56;102160.47;;;6.71;75.88
68871;BME280;55906;52.278;6.808;2023-02-16T02:26:10;102159.66;;;6.72;75.07
68871;BME280;55906;52.278;6.808;2023-02-16T02:28:50;102146.59;;;6.72;75.22
68871;BME280;55906;52.278;6.808;2023-02-16T02:31:29;102147.38;;;6.71;75.82
68871;BME280;55906;52.278;6.808;2023-02-16T02:34:03;102140.34;;;6.70;75.09
68871;BME280;55906;52.278;6.808;2023-02-16T02:36:37;102129.00;;;6.69;75.23
68871;BME280;55906;52.278;6.808;2023-02-16T02:39:18;102133.22;;;6.67;75.73
68871;BME280;55906;52.278;6.808;2023-02-16T02:41:55;102118.25;;;6.65;75.82
68871;BME280;55906;52.278;6.808;2023-02-16T02:44:36;102134.66;;;6.62;75.82
68871;BME280;55906;52.278;6.808;2023-02-16T02:47:05;102130.13;;;6.60;76.08
68871;BME280;55906;52.278;6.808;2023-02-16T02:49:32;102125.63;;;6.57;76.28
68871;BME280;55906;52.278;6.808;2023-02-16T02:51:59;102128.34;;;6.59;76.28
68871;BME280;55906;52.278;6.808;2023-02-16T02:54:28;102128.13;;;6.56;75.72
68871;BME280;55906;52.278;6.808;2023-02-16T02:57:23;102124.53;;;6.54;75.46
68871;BME280;55906;52.278;6.808;2023-02-16T03:00:16;102126.53;;;6.58;75.83
68871;BME280;55906;52.278;6.808;2023-02-16T03:03:05;102124.53;;;6.54;75.58
68871;BME280;55906;52.278;6.808;2023-02-16T03:05:35;102114.16;;;6.55;75.53
68871;BME280;55906;52.278;6.808;2023-02-16T03:08:07;102126.34;;;6.55;75.00
68871;BME280;55906;52.278;6.808;2023-02-16T03:10:40;102118.22;;;6.50;75.89
68871;BME280;55906;52.278;6.808;2023-02-16T03:13:28;102123.31;;;6.49;75.83
68871;BME280;55906;52.278;6.808;2023-02-16T03:16:01;102118.31;;;6.52;75.32
68871;BME280;55906;52.278;6.808;2023-02-16T03:18:30;102108.44;;;6.48;75.88
68871;BME280;55906;52.278;6.808;2023-02-16T03:21:18;102116.97;;;6.45;75.65
68871;BME280;55906;52.278;6.808;2023-02-16T03:24:04;102125.53;;;6.42;76.38
68871;BME280;55906;52.278;6.808;2023-02-16T03:26:53;102122.72;;;6.39;75.42
68871;BME280;55906;52.278;6.808;2023-02-16T03:29:38;102120.03;;;6.38;76.12
68871;BME280;55906;52.278;6.808;2023-02-16T03:32:06;102111.00;;;6.33;76.30
68871;BME280;55906;52.278;6.808;2023-02-16T03:34:34;102110.91;;;6.31;76.22
68871;BME280;55906;52.278;6.808;2023-02-16T03:37:02;102109.78;;;6.28;76.56
68871;BME280;55906;52.278;6.808;2023-02-16T03:39:30;102114.13;;;6.27;76.23
68871;BME280;55906;52.278;6.808;2023-02-16T03:42:18;102103.28;;;6.21;76.15
68871;BME280;55906;52.278;6.808;2023-02-16T03:44:46;102109.50;;;6.23;76.21
68871;BME280;55906;52.278;6.808;2023-02-16T03:47:14;102102.47;;;6.22;76.83
68871;BME280;55906;52.278;6.808;2023-02-16T03:49:40;102112.22;;;6.25;75.91
68871;BME280;55906;52.278;6.808;2023-02-16T03:52:07;102119.34;;;6.27;76.90
68871;BME280;55906;52.278;6.808;2023-02-16T03:54:34;102116.72;;;6.27;76.40
68871;BME280;55906;52.278;6.808;2023-02-16T03:57:00;102116.72;;;6.27;76.36
68871;BME280;55906;52.278;6.808;2023-02-16T03:59:27;102117.53;;;6.26;75.99
68871;BME280;55906;52.278;6.808;2023-02-16T04:01:53;102115.63;;;6.24;76.57
68871;BME280;55906;52.278;6.808;2023-02-16T04:04:22;102114.13;;;6.27;76.24
68871;BME280;55906;52.278;6.808;2023-02-16T04:06:48;102112.41;;;6.28;76.11
68871;BME280;55906;52.278;6.808;2023-02-16T04:09:15;102110.78;;;6.30;75.96
68871;BME280;55906;52.278;6.808;2023-02-16T04:11:41;102110.00;;;6.31;75.68
68871;BME280;55906;52.278;6.808;2023-02-16T04:14:34;102111.09;;;6.34;76.02
68871;BME280;55906;52.278;6.808;2023-02-16T04:17:00;102118.13;;;6.35;76.19
68871;BME280;55906;52.278;6.808;2023-02-16T04:19:29;102112.09;;;6.36;76.36
68871;BME280;55906;52.278;6.808;2023-02-16T04:21:56;102113.69;;;6.34;76.08
68871;BME280;55906;52.278;6.808;2023-02-16T04:24:22;102125.16;;;6.36;76.40
68871;BME280;55906;52.278;6.808;2023-02-16T04:26:49;102121.72;;;6.37;75.39
68871;BME280;55906;52.278;6.808;2023-02-16T04:29:15;102122.72;;;6.39;76.50
68871;BME280;55906;52.278;6.808;2023-02-16T04:31:42;102112.88;;;6.35;75.99
68871;BME280;55906;52.278;6.808;2023-02-16T04:34:08;102122.81;;;6.41;75.82
68871;BME280;55906;52.278;6.808;2023-02-16T04:36:36;102120.13;;;6.39;75.82
68871;BME280;55906;52.278;6.808;2023-02-16T04:39:03;102112.47;;;6.42;75.29
68871;BME280;55906;52.278;6.808;2023-02-16T04:41:30;102109.66;;;6.39;76.33
68871;BME280;55906;52.278;6.808;2023-02-16T04:43:57;102102.63;;;6.38;75.59
68871;BME280;55906;52.278;6.808;2023-02-16T04:46:24;102117.69;;;6.42;75.33
68871;BME280;55906;52.278;6.808;2023-02-16T04:48:50;102112.28;;;6.39;76.06
68871;BME280;55906;52.278;6.808;2023-02-16T04:51:17;102120.31;;;6.42;76.34
68871;BME280;55906;52.278;6.808;2023-02-16T04:53:45;102116.69;;;6.40;75.95
68871;BME280;55906;52.278;6.808;2023-02-16T04:56:11;102116.69;;;6.40;75.61
68871;BME280;55906;52.278;6.808;2023-02-16T04:58:38;102120.03;;;6.38;75.54
68871;BME280;55906;52.278;6.808;2023-02-16T05:01:05;102115.09;;;6.42;75.90
68871;BME280;55906;52.278;6.808;2023-02-16T05:03:31;102115.69;;;6.38;75.77
68871;BME280;55906;52.278;6.808;2023-02-16T05:05:58;102116.78;;;6.42;75.40
68871;BME280;55906;52.278;6.808;2023-02-16T05:08:25;102121.22;;;6.43;75.56
68871;BME280;55906;52.278;6.808;2023-02-16T05:10:53;102122.03;;;6.42;75.53
68871;BME280;55906;52.278;6.808;2023-02-16T05:13:33;102115.97;;;6.43;75.32
68871;BME280;55906;52.278;6.808;2023-02-16T05:16:19;102109.94;;;6.44;75.94
68871;BME280;55906;52.278;6.808;2023-02-16T05:18:46;102111.66;;;6.43;74.80
68871;BME280;55906;52.278;6.808;2023-02-16T05:21:12;102102.91;;;6.43;75.33
68871;BME280;55906;52.278;6.808;2023-02-16T05:23:57;102124.34;;;6.51;74.53
68871;BME280;55906;52.278;6.808;2023-02-16T05:26:26;102115.38;;;6.47;75.42
68871;BME280;55906;52.278;6.808;2023-02-16T05:28:53;102115.38;;;6.47;75.13
68871;BME280;55906;52.278;6.808;2023-02-16T05:31:20;102117.28;;;6.50;75.67
68871;BME280;55906;52.278;6.808;2023-02-16T05:33:47;102115.47;;;6.49;74.58
68871;BME280;55906;52.278;6.808;2023-02-16T05:36:14;102117.19;;;6.48;74.83
68871;BME280;55906;52.278;6.808;2023-02-16T05:38:40;102125.81;;;6.47;75.08
68871;BME280;55906;52.278;6.808;2023-02-16T05:41:07;102118.88;;;6.48;75.32
68871;BME280;55906;52.278;6.808;2023-02-16T05:43:35;102109.25;;;6.47;74.76
68871;BME280;55906;52.278;6.808;2023-02-16T05:46:06;102105.00;;;6.49;75.14
68871;BME280;55906;52.278;6.808;2023-02-16T05:48:33;102111.47;;;6.54;75.22
68871;BME280;55906;52.278;6.808;2023-02-16T05:50:59;102107.22;;;6.56;75.07
68871;BME280;55906;52.278;6.808;2023-02-16T05:53:26;102109.03;;;6.57;75.06
68871;BME280;55906;52.278;6.808;2023-02-16T05:55:52;102105.41;;;6.55;75.17
68871;BME280;55906;52.278;6.808;2023-02-16T05:58:19;102096.16;;;6.60;75.37
68871;BME280;55906;52.278;6.808;2023-02-16T06:00:47;102102.38;;;6.62;74.89
68871;BME280;55906;52.278;6.808;2023-02-16T06:03:13;102105.09;;;6.63;75.29
68871;BME280;55906;52.278;6.808;2023-02-16T06:05:40;102105.28;;;6.66;75.39
68871;BME280;55906;52.278;6.808;2023-02-16T06:08:07;102105.56;;;6.71;74.47
68871;BME280;55906;52.278;6.808;2023-02-16T06:10:33;102109.59;;;6.66;74.06
68871;BME280;55906;52.278;6.808;2023-02-16T06:13:00;102099.75;;;6.62;74.45
68871;BME280;55906;52.278;6.808;2023-02-16T06:15:27;102097.34;;;6.65;74.29
68871;BME280;55906;52.278;6.808;2023-02-16T06:17:55;102090.31;;;6.64;73.97
68871;BME280;55906;52.278;6.808;2023-02-16T06:20:21;102089.50;;;6.65;75.16
68871;BME280;55906;52.278;6.808;2023-02-16T06:22:48;102088.69;;;6.66;75.07
68871;BME280;55906;52.278;6.808;2023-02-16T06:25:14;102087.97;;;6.68;74.67
68871;BME280;55906;52.278;6.808;2023-02-16T06:27:44;102093.38;;;6.71;75.10
68871;BME280;55906;52.278;6.808;2023-02-16T06:30:11;102095.91;;;6.70;74.99
68871;BME280;55906;52.278;6.808;2023-02-16T06:32:38;102085.25;;;6.67;74.83
68871;BME280;55906;52.278;6.808;2023-02-16T06:35:07;102104.75;;;6.72;74.54
68871;BME280;55906;52.278;6.808;2023-02-16T06:37:34;102107.34;;;6.72;74.73
68871;BME280;55906;52.278;6.808;2023-02-16T06:40:00;102113.41;;;6.71;75.32
68871;BME280;55906;52.278;6.808;2023-02-16T06:42:27;102098.59;;;6.71;74.47
68871;BME280;55906;52.278;6.808;2023-02-16T06:44:54;102106.56;;;6.73;74.47
68871;BME280;55906;52.278;6.808;2023-02-16T06:47:20;102098.91;;;6.76;74.69
68871;BME280;55906;52.278;6.808;2023-02-16T06:49:47;102110.25;;;6.77;74.97
68871;BME280;55906;52.278;6.808;2023-02-16T06:52:15;102110.34;;;6.78;74.76
68871;BME280;55906;52.278;6.808;2023-02-16T06:54:41;102101.59;;;6.78;74.29
68871;BME280;55906;52.278;6.808;2023-02-16T06:57:08;102110.34;;;6.78;74.41
68871;BME280;55906;52.278;6.808;2023-02-16T06:59:34;102113.59;;;6.74;74.97
68871;BME280;55906;52.278;6.808;2023-02-16T07:02:01;102109.97;;;6.72;74.91
68871;BME280;55906;52.278;6.808;2023-02-16T07:04:28;102115.09;;;6.70;75.00
68871;BME280;55906;52.278;6.808;2023-02-16T07:06:54;102124.75;;;6.71;75.37
68871;BME280;55906;52.278;6.808;2023-02-16T07:09:22;102129.28;;;6.74;74.47
68871;BME280;55906;52.278;6.808;2023-02-16T07:11:49;102126.84;;;6.77;74.83
68871;BME280;55906;52.278;6.808;2023-02-16T07:14:16;102106.94;;;6.79;74.73
68871;BME280;55906;52.278;6.808;2023-02-16T07:16:42;102103.69;;;6.83;73.94
68871;BME280;55906;52.278;6.808;2023-02-16T07:19:09;102113.97;;;6.80;74.92
68871;BME280;55906;52.278;6.808;2023-02-16T07:21:36;102116.66;;;6.82;75.08
68871;BME280;55906;52.278;6.808;2023-02-16T07:24:02;102121.81;;;6.80;74.17
68871;BME280;55906;52.278;6.808;2023-02-16T07:26:30;102135.97;;;6.84;74.25
68871;BME280;55906;52.278;6.808;2023-02-16T07:28:57;102124.69;;;6.85;74.90
68871;BME280;55906;52.278;6.808;2023-02-16T07:31:24;102129.41;;;6.90;74.31
68871;BME280;55906;52.278;6.808;2023-02-16T07:33:51;102129.41;;;6.90;74.97
68871;BME280;55906;52.278;6.808;2023-02-16T07:36:17;102128.78;;;6.94;75.01
68871;BME280;55906;52.278;6.808;2023-02-16T07:38:44;102119.13;;;6.93;74.58
68871;BME280;55906;52.278;6.808;2023-02-16T07:41:11;102124.34;;;6.93;74.58
68871;BME280;55906;52.278;6.808;2023-02-16T07:43:38;102113.06;;;6.94;74.29
68871;BME280;55906;52.278;6.808;2023-02-16T07:46:07;102111.84;;;7.02;74.29
68871;BME280;55906;52.278;6.808;2023-02-16T07:48:34;102120.94;;;7.09;74.53
68871;BME280;55906;52.278;6.808;2023-02-16T07:51:00;102122.66;;;7.09;74.76
68871;BME280;55906;52.278;6.808;2023-02-16T07:53:27;102132.41;;;7.11;74.25
68871;BME280;55906;52.278;6.808;2023-02-16T07:55:53;102127.53;;;7.17;74.34
68871;BME280;55906;52.278;6.808;2023-02-16T07:58:20;102119.59;;;7.16;74.03
68871;BME280;55906;52.278;6.808;2023-02-16T08:00:55;102129.53;;;7.21;74.32
68871;BME280;55906;52.278;6.808;2023-02-16T08:03:22;102130.25;;;7.19;74.48
68871;BME280;55906;52.278;6.808;2023-02-16T08:05:48;102128.63;;;7.21;74.39
68871;BME280;55906;52.278;6.808;2023-02-16T08:08:15;102127.00;;;7.23;74.21
68871;BME280;55906;52.278;6.808;2023-02-16T08:10:42;102137.47;;;7.23;73.55
68871;BME280;55906;52.278;6.808;2023-02-16T08:13:08;102127.19;;;7.26;73.60
68871;BME280;55906;52.278;6.808;2023-02-16T08:15:35;102134.41;;;7.30;72.95
68871;BME280;55906;52.278;6.808;2023-02-16T08:18:03;102143.63;;;7.38;73.79
68871;BME280;55906;52.278;6.808;2023-02-16T08:20:30;102144.50;;;7.38;73.69
68871;BME280;55906;52.278;6.808;2023-02-16T08:22:56;102153.19;;;7.37;73.25
68871;BME280;55906;52.278;6.808;2023-02-16T08:25:23;102152.63;;;7.43;73.64
68871;BME280;55906;52.278;6.808;2023-02-16T08:27:50;102149.94;;;7.42;72.57
68871;BME280;55906;52.278;6.808;2023-02-16T08:30:16;102142.06;;;7.42;73.58
68871;BME280;55906;52.278;6.808;2023-02-16T08:32:44;102142.16;;;7.43;73.25
68871;BME280;55906;52.278;6.808;2023-02-16T08:35:16;102150.03;;;7.43;73.25
68871;BME280;55906;52.278;6.808;2023-02-16T08:37:43;102149.22;;;7.44;73.29
68871;BME280;55906;52.278;6.808;2023-02-16T08:40:10;102147.69;;;7.48;73.16
68871;BME280;55906;52.278;6.808;2023-02-16T08:42:37;102151.19;;;7.48;72.95
68871;BME280;55906;52.278;6.808;2023-02-16T08:45:04;102147.22;;;7.55;72.45
68871;BME280;55906;52.278;6.808;2023-02-16T08:47:31;102148.94;;;7.54;72.48
68871;BME280;55906;52.278;6.808;2023-02-16T08:49:58;102152.72;;;7.59;73.21
68871;BME280;55906;52.278;6.808;2023-02-16T08:52:26;102157.16;;;7.60;72.48
68871;BME280;55906;52.278;6.808;2023-02-16T08:54:53;102158.78;;;7.58;72.78
68871;BME280;55906;52.278;6.808;2023-02-16T08:57:20;102166.00;;;7.62;72.13
68871;BME280;55906;52.278;6.808;2023-02-16T08:59:47;102157.50;;;7.66;72.05
68871;BME280;55906;52.278;6.808;2023-02-16T09:02:34;102168.16;;;7.69;72.19
68871;BME280;55906;52.278;6.808;2023-02-16T09:05:00;102167.16;;;7.67;73.00
68871;BME280;55906;52.278;6.808;2023-02-16T09:07:28;102165.53;;;7.69;72.34
68871;BME280;55906;52.278;6.808;2023-02-16T09:09:59;102158.44;;;7.82;72.80
68871;BME280;55906;52.278;6.808;2023-02-16T09:12:25;102157.78;;;7.86;72.49
68871;BME280;55906;52.278;6.808;2023-02-16T09:14:54;102156.06;;;7.86;71.87
68871;BME280;55906;52.278;6.808;2023-02-16T09:17:21;102153.72;;;7.91;72.22
68871;BME280;55906;52.278;6.808;2023-02-16T09:19:48;102155.94;;;7.99;71.79
68871;BME280;55906;52.278;6.808;2023-02-16T09:22:14;102163.00;;;8.00;71.58
68871;BME280;55906;52.278;6.808;2023-02-16T09:24:43;102161.28;;;8.01;71.54
68871;BME280;55906;52.278;6.808;2023-02-16T09:27:10;102171.94;;;8.04;71.36
68871;BME280;55906;52.278;6.808;2023-02-16T09:29:37;102163.19;;;8.03;71.70
68871;BME280;55906;52.278;6.808;2023-02-16T09:32:04;102172.03;;;8.06;71.34
68871;BME280;55906;52.278;6.808;2023-02-16T09:34:35;102156.22;;;8.04;71.97
68871;BME280;55906;52.278;6.808;2023-02-16T09:37:02;102151.22;;;8.09;71.75
68871;BME280;55906;52.278;6.808;2023-02-16T09:39:28;102157.03;;;8.03;71.92
68871;BME280;55906;52.278;6.808;2023-02-16T09:42:17;102155.56;;;8.08;71.69
68871;BME280;55906;52.278;6.808;2023-02-16T09:44:53;102159.28;;;8.12;72.17
68871;BME280;55906;52.278;6.808;2023-02-16T09:47:25;102162.97;;;8.15;71.96
68871;BME280;55906;52.278;6.808;2023-02-16T09:49:54;102163.78;;;8.14;71.76
68871;BME280;55906;52.278;6.808;2023-02-16T09:52:27;102167.22;;;8.13;71.89
68871;BME280;55906;52.278;6.808;2023-02-16T09:54:57;102174.25;;;8.14;71.98
68871;BME280;55906;52.278;6.808;2023-02-16T09:57:38;102179.13;;;8.23;71.78
68871;BME280;55906;52.278;6.808;2023-02-16T10:00:13;102173.22;;;8.27;71.73
68871;BME280;55906;52.278;6.808;2023-02-16T10:02:46;102171.69;;;8.30;72.38
68871;BME280;55906;52.278;6.808;2023-02-16T10:05:18;102187.34;;;8.29;71.97
68871;BME280;55906;52.278;6.808;2023-02-16T10:07:57;102175.13;;;8.29;71.80
68871;BME280;55906;52.278;6.808;2023-02-16T10:10:38;102165.84;;;8.34;71.58
68871;BME280;55906;52.278;6.808;2023-02-16T10:13:14;102187.97;;;8.40;71.48
68871;BME280;55906;52.278;6.808;2023-02-16T10:15:44;102177.38;;;8.38;71.78
68871;BME280;55906;52.278;6.808;2023-02-16T10:18:18;102170.25;;;8.36;72.32
68871;BME280;55906;52.278;6.808;2023-02-16T10:20:48;102174.84;;;8.40;71.89
68871;BME280;55906;52.278;6.808;2023-02-16T10:23:28;102181.91;;;8.41;72.20
68871;BME280;55906;52.278;6.808;2023-02-16T10:26:00;102181.81;;;8.39;71.80
68871;BME280;55906;52.278;6.808;2023-02-16T10:28:36;102174.03;;;8.41;72.19
68871;BME280;55906;52.278;6.808;2023-02-16T10:31:12;102165.53;;;8.45;72.79
68871;BME280;55906;52.278;6.808;2023-02-16T10:33:41;102172.56;;;8.46;72.99
68871;BME280;55906;52.278;6.808;2023-02-16T10:36:14;102166.34;;;8.44;73.72
68871;BME280;55906;52.278;6.808;2023-02-16T10:38:48;102173.91;;;8.54;73.54
68871;BME280;55906;52.278;6.808;2023-02-16T10:41:26;102153.31;;;8.45;75.13
68871;BME280;55906;52.278;6.808;2023-02-16T10:44:00;102169.22;;;8.48;74.06
68871;BME280;55906;52.278;6.808;2023-02-16T10:46:31;102169.78;;;8.43;75.65
68871;BME280;55906;52.278;6.808;2023-02-16T10:48:59;102152.81;;;8.36;75.52
68871;BME280;55906;52.278;6.808;2023-02-16T10:51:30;102154.63;;;8.37;76.55
68871;BME280;55906;52.278;6.808;2023-02-16T10:54:00;102148.19;;;8.32;76.79
68871;BME280;55906;52.278;6.808;2023-02-16T10:56:46;102138.78;;;8.36;77.50
68871;BME280;55906;52.278;6.808;2023-02-16T10:59:19;102145.03;;;8.38;77.70
68871;BME280;55906;52.278;6.808;2023-02-16T11:01:49;102144.38;;;8.42;77.80
68871;BME280;55906;52.278;6.808;2023-02-16T11:04:30;102149.47;;;8.55;78.03
68871;BME280;55906;52.278;6.808;2023-02-16T11:07:03;102159.47;;;8.62;77.87
68871;BME280;55906;52.278;6.808;2023-02-16T11:09:30;102159.72;;;8.66;77.63
68871;BME280;55906;52.278;6.808;2023-02-16T11:11:58;102162.03;;;8.60;78.53
68871;BME280;55906;52.278;6.808;2023-02-16T11:14:29;102164.81;;;8.63;78.54
68871;BME280;55906;52.278;6.808;2023-02-16T11:17:07;102161.53;;;8.68;78.29
68871;BME280;55906;52.278;6.808;2023-02-16T11:19:38;102155.72;;;8.73;78.40
68871;BME280;55906;52.278;6.808;2023-02-16T11:22:05;102152.44;;;8.77;78.15
68871;BME280;55906;52.278;6.808;2023-02-16T11:24:35;102151.03;;;8.84;78.01
68871;BME280;55906;52.278;6.808;2023-02-16T11:27:04;102152.59;;;8.80;77.66
68871;BME280;55906;52.278;6.808;2023-02-16T11:29:33;102156.69;;;8.75;78.08
68871;BME280;55906;52.278;6.808;2023-02-16T11:32:05;102148.16;;;8.79;78.32
68871;BME280;55906;52.278;6.808;2023-02-16T11:34:34;102138.75;;;8.83;79.16
68871;BME280;55906;52.278;6.808;2023-02-16T11:37:05;102139.22;;;8.76;79.72
68871;BME280;55906;52.278;6.808;2023-02-16T11:39:35;102140.06;;;8.75;79.85
68871;BME280;55906;52.278;6.808;2023-02-16T11:42:05;102137.34;;;8.73;79.95
68871;BME280;55906;52.278;6.808;2023-02-16T11:44:37;102139.16;;;8.74;80.05
68871;BME280;55906;52.278;6.808;2023-02-16T11:47:07;102145.13;;;8.72;80.82
68871;BME280;55906;52.278;6.808;2023-02-16T11:49:36;102144.72;;;8.64;81.50
68871;BME280;55906;52.278;6.808;2023-02-16T11:52:19;102142.84;;;8.61;81.23
68871;BME280;55906;52.278;6.808;2023-02-16T11:54:51;102144.31;;;8.56;81.92
68871;BME280;55906;52.278;6.808;2023-02-16T11:57:23;102139.81;;;8.54;81.67
68871;BME280;55906;52.278;6.808;2023-02-16T11:59:53;102154.22;;;8.46;81.89
68871;BME280;55906;52.278;6.808;2023-02-16T12:02:37;102158.72;;;8.48;81.42
68871;BME280;55906;52.278;6.808;2023-02-16T12:05:23;102157.31;;;8.39;81.96
68871;BME280;55906;52.278;6.808;2023-02-16T12:08:03;102165.84;;;8.34;82.54
68871;BME280;55906;52.278;6.808;2023-02-16T12:10:39;102167.25;;;8.29;82.76
68871;BME280;55906;52.278;6.808;2023-02-16T12:13:17;102163.47;;;8.24;84.33
68871;BME280;55906;52.278;6.808;2023-02-16T12:15:51;102146.59;;;8.19;85.36
68871;BME280;55906;52.278;6.808;2023-02-16T12:18:29;102154.94;;;8.12;86.90
68871;BME280;55906;52.278;6.808;2023-02-16T12:21:11;102152.78;;;8.05;87.53
68871;BME280;55906;52.278;6.808;2023-02-16T12:23:42;102151.44;;;7.97;88.36
68871;BME280;55906;52.278;6.808;2023-02-16T12:26:28;102150.63;;;7.98;88.60
68871;BME280;55906;52.278;6.808;2023-02-16T12:29:06;102146.03;;;7.94;88.65
68871;BME280;55906;52.278;6.808;2023-02-16T12:31:50;102145.22;;;7.95;89.43
68871;BME280;55906;52.278;6.808;2023-02-16T12:34:27;102144.06;;;7.90;89.75
68871;BME280;55906;52.278;6.808;2023-02-16T12:36:59;102138.16;;;7.94;90.48
68871;BME280;55906;52.278;6.808;2023-02-16T12:39:34;102134.19;;;8.00;90.99
68871;BME280;55906;52.278;6.808;2023-02-16T12:42:25;102140.16;;;7.98;91.00
68871;BME280;55906;52.278;6.808;2023-02-16T12:45:01;102130.00;;;8.04;91.03
68871;BME280;55906;52.278;6.808;2023-02-16T12:47:34;102111.91;;;8.09;90.67
68871;BME280;55906;52.278;6.808;2023-02-16T12:50:03;102111.06;;;8.24;90.01
68871;BME280;55906;52.278;6.808;2023-02-16T12:52:36;102107.13;;;8.32;89.96
68871;BME280;55906;52.278;6.808;2023-02-16T12:55:18;102106.69;;;8.40;89.15
68871;BME280;55906;52.278;6.808;2023-02-16T12:57:51;102103.06;;;8.38;89.24
68871;BME280;55906;52.278;6.808;2023-02-16T13:00:24;102098.91;;;8.41;89.75
68871;BME280;55906;52.278;6.808;2023-02-16T13:02:57;102070.72;;;8.53;89.54
68871;BME280;55906;52.278;6.808;2023-02-16T13:05:30;102059.88;;;8.63;88.90
68871;BME280;55906;52.278;6.808;2023-02-16T13:08:06;102062.41;;;8.78;87.88
68871;BME280;55906;52.278;6.808;2023-02-16T13:10:46;102048.28;;;8.92;87.56
68871;BME280;55906;52.278;6.808;2023-02-16T13:13:20;102035.91;;;9.24;87.64
68871;BME280;55906;52.278;6.808;2023-02-16T13:15:51;102029.53;;;9.72;86.00
68871;BME280;55906;52.278;6.808;2023-02-16T13:18:25;102028.53;;;9.88;84.11
68871;BME280;55906;52.278;6.808;2023-02-16T13:20:58;102024.19;;;10.08;83.05